createdAt,value
2022-11-09T07:37:41.162Z,26.63
2022-11-09T08:13:50.872Z,25.77
2022-11-09T08:18:44.392Z,23.20
2022-11-09T08:42:06.637Z,30.73
2022-11-09T08:47:00.097Z,28.53
2022-11-09T08:51:54.808Z,25.83
2022-11-09T08:56:48.367Z,18.17
2022-11-09T09:01:43.431Z,17.73
2022-11-09T09:06:37.834Z,14.50
2022-11-09T09:11:31.363Z,11.67
2022-11-09T09:16:24.862Z,14.30
2022-11-09T09:21:19.848Z,16.50
2022-11-09T09:26:13.544Z,10.40
2022-11-09T09:31:07.224Z,8.77
2022-11-09T09:36:01.336Z,11.77
2022-11-09T09:41:00.302Z,12.53
2022-11-09T09:45:55.144Z,11.83
2022-11-09T09:50:52.105Z,11.10
2022-11-09T09:55:51.890Z,14.37
2022-11-09T10:00:47.099Z,10.33
2022-11-09T10:05:49.413Z,13.80
2022-11-09T10:10:48.402Z,16.57
2022-11-09T10:15:50.882Z,14.30
2022-11-09T10:20:58.616Z,10.97
2022-11-09T10:26:04.890Z,8.10
2022-11-09T10:31:03.133Z,8.83
2022-11-09T10:36:07.832Z,9.03
2022-11-09T10:41:06.535Z,9.90
2022-11-09T10:46:21.575Z,11.60
2022-11-09T10:51:39.815Z,17.13
2022-11-09T10:57:10.030Z,7.27
2022-11-09T11:02:44.220Z,9.03
2022-11-09T11:07:56.496Z,9.07
2022-11-09T11:13:29.363Z,10.77
2022-11-09T11:18:47.082Z,9.70
2022-11-09T11:24:14.909Z,7.90
2022-11-09T11:29:48.463Z,7.38
2022-11-09T11:35:02.751Z,7.35
2022-11-09T11:40:21.647Z,10.65
2022-11-09T11:45:42.472Z,9.05
2022-11-09T11:51:02.818Z,6.95
2022-11-09T11:56:23.735Z,11.00
2022-11-09T12:01:52.821Z,8.48
2022-11-09T12:07:15.844Z,25.33
2022-11-09T12:12:37.278Z,9.82
2022-11-09T12:17:59.252Z,17.40
2022-11-09T12:23:26.091Z,7.03
2022-11-09T12:28:55.920Z,7.80
2022-11-09T12:34:16.383Z,8.80
2022-11-09T12:39:37.136Z,8.38
2022-11-09T12:45:04.744Z,7.53
2022-11-09T12:50:20.344Z,8.50
2022-11-09T12:55:42.477Z,6.93
2022-11-09T13:00:57.306Z,6.90
2022-11-09T13:06:19.200Z,6.90
2022-11-09T13:11:39.565Z,8.02
2022-11-09T13:16:52.438Z,15.75
2022-11-09T13:22:25.319Z,8.32
2022-11-09T13:27:51.903Z,6.18
2022-11-09T13:33:25.470Z,8.63
2022-11-09T13:38:38.491Z,9.77
2022-11-09T13:44:09.781Z,8.60
2022-11-09T13:49:46.084Z,13.43
2022-11-09T13:54:58.568Z,11.20
2022-11-09T14:00:19.920Z,9.65
2022-11-09T14:05:36.328Z,10.07
2022-11-09T14:11:11.594Z,10.07
2022-11-09T14:16:31.369Z,9.05
2022-11-09T14:21:48.021Z,7.20
2022-11-09T14:27:01.877Z,9.10
2022-11-09T14:32:30.330Z,9.48
2022-11-09T14:37:46.530Z,8.13
2022-11-09T14:43:02.455Z,8.83
2022-11-09T14:48:20.795Z,13.60
2022-11-09T14:53:37.903Z,8.93
2022-11-09T14:58:50.896Z,10.53
2022-11-09T15:04:11.845Z,14.50
2022-11-09T15:09:29.810Z,13.03
2022-11-09T15:14:42.784Z,9.10
2022-11-09T15:19:58.648Z,10.13
2022-11-09T15:25:31.353Z,24.83
2022-11-09T15:30:46.267Z,17.47
2022-11-09T15:36:04.573Z,16.63
2022-11-09T15:41:19.841Z,20.77
2022-11-09T15:46:37.891Z,21.03
2022-11-09T15:51:52.110Z,25.53
2022-11-09T15:57:05.366Z,29.33
2022-11-09T16:02:19.146Z,24.97
2022-11-09T16:07:33.029Z,32.90
2022-11-09T16:12:46.508Z,18.13
2022-11-09T16:17:59.079Z,16.97
2022-11-09T16:23:13.355Z,20.70
2022-11-09T16:28:26.126Z,13.70
2022-11-09T16:33:40.241Z,13.53
2022-11-09T16:38:57.311Z,14.13
2022-11-09T16:44:09.745Z,12.43
2022-11-09T16:49:22.113Z,13.60
